createdAt,value
2023-01-13T00:00:24.169Z,5.81
2023-01-13T00:02:52.391Z,5.81
2023-01-13T00:05:21.963Z,5.83
2023-01-13T00:07:50.039Z,5.83
2023-01-13T00:10:18.487Z,5.79
2023-01-13T00:12:46.515Z,5.79
2023-01-13T00:15:14.591Z,5.77
2023-01-13T00:17:42.876Z,5.80
2023-01-13T00:20:11.684Z,5.75
2023-01-13T00:22:41.124Z,5.77
2023-01-13T00:25:09.739Z,5.76
2023-01-13T00:27:37.718Z,5.77
2023-01-13T00:30:07.602Z,5.78
2023-01-13T00:32:35.656Z,5.76
2023-01-13T00:35:03.937Z,5.79
2023-01-13T00:37:32.239Z,5.81
2023-01-13T00:40:02.206Z,5.75
2023-01-13T00:42:52.187Z,5.69
2023-01-13T00:45:22.303Z,5.63
2023-01-13T00:47:50.480Z,5.56
2023-01-13T00:50:18.703Z,5.54
2023-01-13T00:52:46.760Z,5.48
2023-01-13T00:55:16.495Z,5.36
2023-01-13T00:57:44.630Z,5.29
2023-01-13T01:00:13.625Z,5.31
2023-01-13T01:02:42.112Z,5.27
2023-01-13T01:05:11.120Z,5.29
2023-01-13T01:07:39.097Z,5.30
2023-01-13T01:10:07.660Z,5.32
2023-01-13T01:12:37.680Z,5.34
2023-01-13T01:15:07.722Z,5.35
2023-01-13T01:17:35.895Z,5.32
2023-01-13T01:20:04.278Z,5.31
2023-01-13T01:22:32.404Z,5.33
2023-01-13T01:25:01.076Z,5.35
2023-01-13T01:27:29.195Z,5.36
2023-01-13T01:29:58.939Z,5.35
2023-01-13T01:32:27.089Z,5.36
2023-01-13T01:34:55.383Z,5.35
2023-01-13T01:37:23.440Z,5.33
2023-01-13T01:39:51.627Z,5.31
2023-01-13T01:42:37.635Z,5.34
2023-01-13T01:45:16.260Z,5.34
2023-01-13T01:47:45.870Z,5.31
2023-01-13T01:50:14.076Z,5.35
2023-01-13T01:52:44.320Z,5.27
2023-01-13T01:55:15.497Z,5.22
2023-01-13T01:57:45.320Z,5.25
2023-01-13T02:00:15.583Z,5.25
2023-01-13T02:02:45.386Z,5.27
2023-01-13T02:05:14.150Z,5.28
2023-01-13T02:07:43.245Z,5.31
2023-01-13T02:10:14.282Z,5.30
2023-01-13T02:12:44.541Z,5.31
2023-01-13T02:15:15.454Z,5.30
2023-01-13T02:17:59.994Z,5.29
2023-01-13T02:20:44.174Z,5.26
2023-01-13T02:23:47.553Z,5.19
2023-01-13T02:26:33.967Z,5.19
2023-01-13T02:29:26.627Z,5.04
2023-01-13T02:32:00.224Z,4.97
2023-01-13T02:34:34.649Z,4.97
2023-01-13T02:37:05.614Z,4.93
2023-01-13T02:39:35.926Z,4.88
2023-01-13T02:42:23.371Z,4.81
2023-01-13T02:44:54.894Z,4.77
2023-01-13T02:47:26.721Z,4.75
2023-01-13T02:49:57.297Z,4.71
2023-01-13T02:52:27.195Z,4.66
2023-01-13T02:54:58.412Z,4.65
2023-01-13T02:57:27.901Z,4.56
2023-01-13T02:59:56.919Z,4.56
2023-01-13T03:02:27.207Z,4.50
2023-01-13T03:04:56.537Z,4.48
2023-01-13T03:07:53.481Z,4.42
2023-01-13T03:10:28.928Z,4.43
2023-01-13T03:13:03.832Z,4.41
2023-01-13T03:15:40.520Z,4.41
2023-01-13T03:18:15.380Z,4.46
2023-01-13T03:20:49.071Z,4.46
2023-01-13T03:23:18.828Z,4.52
2023-01-13T03:25:50.912Z,4.56
2023-01-13T03:28:24.888Z,4.59
2023-01-13T03:30:55.328Z,4.59
2023-01-13T03:33:26.814Z,4.54
2023-01-13T03:35:57.089Z,4.57
2023-01-13T03:38:29.566Z,4.50
2023-01-13T03:41:00.111Z,4.48
2023-01-13T03:43:47.519Z,4.49
2023-01-13T03:46:19.975Z,4.49
2023-01-13T03:48:54.123Z,4.50
2023-01-13T03:51:25.352Z,4.47
2023-01-13T03:53:56.802Z,4.45
2023-01-13T03:56:28.745Z,4.42
2023-01-13T03:58:58.994Z,4.39
2023-01-13T04:01:29.806Z,4.41
2023-01-13T04:04:02.123Z,4.41
2023-01-13T04:06:35.233Z,4.44
2023-01-13T04:09:07.377Z,4.50
2023-01-13T04:11:39.938Z,4.54
2023-01-13T04:14:09.671Z,4.55
2023-01-13T04:16:38.416Z,4.54
2023-01-13T04:19:07.990Z,4.58
2023-01-13T04:21:36.496Z,4.58
2023-01-13T04:24:04.781Z,4.59
2023-01-13T04:26:33.237Z,4.63
2023-01-13T04:29:01.273Z,4.65
2023-01-13T04:31:29.661Z,4.70
2023-01-13T04:33:58.106Z,4.74
2023-01-13T04:36:28.489Z,4.76
2023-01-13T04:38:57.256Z,4.80
2023-01-13T04:41:25.423Z,4.82
2023-01-13T04:43:53.501Z,4.81
2023-01-13T04:46:21.750Z,4.81
2023-01-13T04:48:50.112Z,4.82
2023-01-13T04:51:18.430Z,4.77
2023-01-13T04:53:48.033Z,4.72
2023-01-13T04:56:16.037Z,4.73
2023-01-13T04:58:44.258Z,4.73
2023-01-13T05:01:12.448Z,4.77
2023-01-13T05:03:40.565Z,4.78
2023-01-13T05:06:09.037Z,4.83
2023-01-13T05:08:37.314Z,4.86
2023-01-13T05:11:26.949Z,4.90
2023-01-13T05:14:12.615Z,4.93
2023-01-13T05:16:54.474Z,4.96
2023-01-13T05:19:22.738Z,5.04
2023-01-13T05:22:08.162Z,5.02
2023-01-13T05:24:53.578Z,5.04
2023-01-13T05:27:23.189Z,5.04
2023-01-13T05:29:51.395Z,5.05
2023-01-13T05:32:19.557Z,5.01
2023-01-13T05:34:47.771Z,5.02
2023-01-13T05:37:16.377Z,5.02
2023-01-13T05:40:01.980Z,4.98
2023-01-13T05:42:49.181Z,4.95
2023-01-13T05:45:17.484Z,4.94
2023-01-13T05:47:45.833Z,4.86
2023-01-13T05:50:13.937Z,4.81
2023-01-13T05:52:42.044Z,4.84
2023-01-13T05:55:10.716Z,4.82
2023-01-13T05:57:40.508Z,4.83
2023-01-13T06:00:09.519Z,4.79
2023-01-13T06:02:40.528Z,4.80
2023-01-13T06:05:09.267Z,4.75
2023-01-13T06:07:37.314Z,4.73
2023-01-13T06:10:05.876Z,4.72
2023-01-13T06:12:34.389Z,4.70
2023-01-13T06:15:04.563Z,4.72
2023-01-13T06:17:32.809Z,4.72
2023-01-13T06:20:00.810Z,4.73
2023-01-13T06:22:32.473Z,4.72
2023-01-13T06:25:00.970Z,4.71
2023-01-13T06:27:30.443Z,4.67
2023-01-13T06:29:58.624Z,4.64
2023-01-13T06:32:30.415Z,4.71
2023-01-13T06:35:01.038Z,4.74
2023-01-13T06:37:30.180Z,4.76
2023-01-13T06:40:00.679Z,4.78
2023-01-13T06:42:47.283Z,4.76
2023-01-13T06:45:15.541Z,4.72
2023-01-13T06:47:45.313Z,4.72
2023-01-13T06:50:13.607Z,4.69
2023-01-13T06:52:41.855Z,4.67
2023-01-13T06:55:10.148Z,4.66
2023-01-13T06:57:47.760Z,4.62
2023-01-13T07:00:16.636Z,4.61
2023-01-13T07:02:46.238Z,4.61
2023-01-13T07:05:14.565Z,4.58
2023-01-13T07:07:42.921Z,4.59
2023-01-13T07:10:14.392Z,4.60
2023-01-13T07:12:59.836Z,4.56
2023-01-13T07:15:28.368Z,4.55
2023-01-13T07:18:00.039Z,4.52
2023-01-13T07:20:28.588Z,4.49
2023-01-13T07:22:57.163Z,4.53
2023-01-13T07:25:25.503Z,4.49
2023-01-13T07:27:58.300Z,4.48
2023-01-13T07:30:26.351Z,4.49
2023-01-13T07:32:54.409Z,4.51
2023-01-13T07:35:24.033Z,4.55
2023-01-13T07:37:52.079Z,4.56
2023-01-13T07:40:20.377Z,4.54
2023-01-13T07:43:06.352Z,4.52
2023-01-13T07:45:34.579Z,4.49
2023-01-13T07:48:02.731Z,4.44
2023-01-13T07:50:32.506Z,4.41
2023-01-13T07:53:00.816Z,4.39
2023-01-13T07:55:29.034Z,4.38
2023-01-13T07:57:57.352Z,4.42
2023-01-13T08:00:25.572Z,4.40
2023-01-13T08:02:53.709Z,4.40
2023-01-13T08:05:22.170Z,4.42
2023-01-13T08:07:51.776Z,4.39
2023-01-13T08:10:20.324Z,4.44
2023-01-13T08:13:05.908Z,4.48
2023-01-13T08:15:34.841Z,4.52
2023-01-13T08:18:03.037Z,4.53
2023-01-13T08:20:31.208Z,4.57
2023-01-13T08:23:02.563Z,4.58
2023-01-13T08:25:30.755Z,4.58
2023-01-13T08:28:00.288Z,4.59
2023-01-13T08:30:29.266Z,4.61
2023-01-13T08:32:59.040Z,4.55
2023-01-13T08:35:27.655Z,4.59
2023-01-13T08:37:56.064Z,4.54
2023-01-13T08:40:25.718Z,4.53
2023-01-13T08:42:54.472Z,4.54
2023-01-13T08:45:31.913Z,4.47
2023-01-13T08:48:08.842Z,4.46
2023-01-13T08:50:38.291Z,4.45
2023-01-13T08:53:06.497Z,4.47
2023-01-13T08:55:36.339Z,4.46
2023-01-13T08:58:15.288Z,4.47
2023-01-13T09:00:45.025Z,4.48
2023-01-13T09:03:13.400Z,4.54
2023-01-13T09:05:42.195Z,4.58
2023-01-13T09:08:10.771Z,4.59
2023-01-13T09:10:41.640Z,4.65
2023-01-13T09:13:12.269Z,4.63
2023-01-13T09:15:41.406Z,4.65
2023-01-13T09:18:09.963Z,4.68
2023-01-13T09:20:38.201Z,4.71
2023-01-13T09:23:09.984Z,4.70
2023-01-13T09:25:40.624Z,4.71
2023-01-13T09:28:09.392Z,4.71
2023-01-13T09:30:38.693Z,4.74
2023-01-13T09:33:24.463Z,4.78
2023-01-13T09:35:52.755Z,4.81
2023-01-13T09:38:20.934Z,4.83
2023-01-13T09:40:50.976Z,4.87
2023-01-13T09:43:38.746Z,4.94
2023-01-13T09:46:30.273Z,5.02
2023-01-13T09:48:59.260Z,5.02
2023-01-13T09:51:35.940Z,5.12
2023-01-13T09:54:13.310Z,5.17
2023-01-13T09:56:50.840Z,5.20
2023-01-13T09:59:25.016Z,5.22
2023-01-13T10:02:03.099Z,5.28
2023-01-13T10:04:37.987Z,5.40
2023-01-13T10:07:20.666Z,5.41
2023-01-13T10:09:58.339Z,5.40
2023-01-13T10:12:48.167Z,5.39
2023-01-13T10:15:23.246Z,5.43
2023-01-13T10:18:00.036Z,5.40
2023-01-13T10:20:34.215Z,5.54
2023-01-13T10:23:08.718Z,5.55
2023-01-13T10:25:56.658Z,5.71
2023-01-13T10:28:26.660Z,5.73
2023-01-13T10:30:54.893Z,5.79
2023-01-13T10:33:27.729Z,5.91
2023-01-13T10:36:00.707Z,6.09
2023-01-13T10:38:30.643Z,6.22
2023-01-13T10:40:59.958Z,6.42
2023-01-13T10:43:30.497Z,6.53
2023-01-13T10:46:01.095Z,6.66
2023-01-13T10:48:40.320Z,6.89
2023-01-13T10:51:12.931Z,7.02
2023-01-13T10:53:51.491Z,7.01
2023-01-13T10:56:27.132Z,7.12
2023-01-13T10:59:24.183Z,7.30
2023-01-13T11:01:59.661Z,7.62
2023-01-13T11:04:36.655Z,7.92
2023-01-13T11:07:05.803Z,8.21
2023-01-13T11:09:39.225Z,8.47
2023-01-13T11:12:34.015Z,8.62
2023-01-13T11:15:09.440Z,9.06
2023-01-13T11:17:48.052Z,9.13
2023-01-13T11:20:24.587Z,9.29
2023-01-13T11:22:59.811Z,9.55
2023-01-13T11:25:41.510Z,9.62
2023-01-13T11:28:20.763Z,9.94
2023-01-13T11:30:54.823Z,9.90
2023-01-13T11:33:36.410Z,9.75
2023-01-13T11:36:13.409Z,9.88
2023-01-13T11:38:54.556Z,9.91
2023-01-13T11:41:47.753Z,10.37
2023-01-13T11:44:21.762Z,10.57
2023-01-13T11:46:56.485Z,10.72
2023-01-13T11:49:32.536Z,10.88
2023-01-13T11:52:12.365Z,11.12
2023-01-13T11:54:50.895Z,11.24
2023-01-13T11:57:40.605Z,11.16
2023-01-13T12:00:19.042Z,11.44
2023-01-13T12:02:58.166Z,10.95
2023-01-13T12:05:35.528Z,11.26
2023-01-13T12:08:16.945Z,11.21
2023-01-13T12:10:57.690Z,11.33
2023-01-13T12:13:33.516Z,11.22
2023-01-13T12:16:24.484Z,10.98
2023-01-13T12:19:01.640Z,11.05
2023-01-13T12:21:34.647Z,11.23
2023-01-13T12:24:09.620Z,11.02
2023-01-13T12:26:40.335Z,10.95
2023-01-13T12:29:12.999Z,10.85
2023-01-13T12:31:43.335Z,10.98
2023-01-13T12:34:21.517Z,10.89
2023-01-13T12:36:57.190Z,10.85
2023-01-13T12:39:28.489Z,10.62
2023-01-13T12:42:18.085Z,10.46
2023-01-13T12:45:05.232Z,10.48
2023-01-13T12:47:41.157Z,10.27
2023-01-13T12:50:33.422Z,10.17
2023-01-13T12:53:33.064Z,10.08
2023-01-13T12:56:31.216Z,10.00
2023-01-13T12:59:25.436Z,9.93
2023-01-13T13:02:30.900Z,9.84
2023-01-13T13:05:08.791Z,9.80
2023-01-13T13:07:46.095Z,9.76
2023-01-13T13:10:26.016Z,9.46
2023-01-13T13:13:18.332Z,9.50
2023-01-13T13:15:53.479Z,9.46
2023-01-13T13:18:27.731Z,9.44
2023-01-13T13:21:04.730Z,9.35
2023-01-13T13:23:45.082Z,9.26
2023-01-13T13:26:37.936Z,9.18
2023-01-13T13:29:23.646Z,8.95
2023-01-13T13:32:15.614Z,8.78
2023-01-13T13:34:48.572Z,8.71
2023-01-13T13:37:28.944Z,8.56
2023-01-13T13:40:14.975Z,8.42
2023-01-13T13:43:02.691Z,8.38
2023-01-13T13:45:48.520Z,8.29
2023-01-13T13:48:21.044Z,8.04
2023-01-13T13:50:50.202Z,8.09
2023-01-13T13:53:20.573Z,8.08
2023-01-13T13:55:59.659Z,8.05
2023-01-13T13:58:30.589Z,8.12
2023-01-13T14:01:00.223Z,7.98
2023-01-13T14:03:30.908Z,7.99
2023-01-13T14:06:02.238Z,7.98
2023-01-13T14:08:31.715Z,7.93
2023-01-13T14:11:00.198Z,7.87
2023-01-13T14:13:31.946Z,7.79
2023-01-13T14:16:01.140Z,7.86
2023-01-13T14:18:31.895Z,7.77
2023-01-13T14:21:01.685Z,7.73
2023-01-13T14:23:31.055Z,7.80
2023-01-13T14:26:03.422Z,7.74
2023-01-13T14:28:37.493Z,7.79
2023-01-13T14:31:06.783Z,7.74
2023-01-13T14:33:38.888Z,7.72
2023-01-13T14:36:16.175Z,7.73
2023-01-13T14:38:46.297Z,7.84
2023-01-13T14:41:19.718Z,7.92
2023-01-13T14:43:50.438Z,7.78
2023-01-13T14:46:21.090Z,7.83
2023-01-13T14:48:54.123Z,7.76
2023-01-13T14:51:25.551Z,7.67
2023-01-13T14:53:54.400Z,7.68
2023-01-13T14:56:43.676Z,7.64
2023-01-13T14:59:32.546Z,7.63
2023-01-13T15:02:02.708Z,7.60
2023-01-13T15:04:38.352Z,7.63
2023-01-13T15:07:08.301Z,7.65
2023-01-13T15:09:40.779Z,7.60
2023-01-13T15:12:25.772Z,7.64
2023-01-13T15:14:56.961Z,7.55
2023-01-13T15:17:27.915Z,7.54
2023-01-13T15:19:56.883Z,7.51
2023-01-13T15:22:25.205Z,7.47
2023-01-13T15:24:53.300Z,7.53
2023-01-13T15:27:29.569Z,7.48
2023-01-13T15:29:59.691Z,7.37
2023-01-13T15:32:29.411Z,7.40
2023-01-13T15:34:58.693Z,7.40
2023-01-13T15:37:26.765Z,7.43
2023-01-13T15:39:54.835Z,7.34
2023-01-13T15:42:37.014Z,7.42
2023-01-13T15:45:23.621Z,7.31
2023-01-13T15:47:53.531Z,7.29
2023-01-13T15:50:23.099Z,7.25
2023-01-13T15:52:51.735Z,7.27
2023-01-13T15:55:20.036Z,7.18
2023-01-13T15:57:51.025Z,7.14
2023-01-13T16:00:23.408Z,7.14
2023-01-13T16:02:52.739Z,7.01
2023-01-13T16:05:22.412Z,7.00
2023-01-13T16:07:50.544Z,7.01
2023-01-13T16:10:24.143Z,6.90
2023-01-13T16:12:53.881Z,6.86
2023-01-13T16:15:25.051Z,6.80
2023-01-13T16:17:56.234Z,6.80
2023-01-13T16:20:25.824Z,6.76
2023-01-13T16:22:54.040Z,6.70
2023-01-13T16:25:24.213Z,6.64
2023-01-13T16:27:53.242Z,6.58
2023-01-13T16:30:26.082Z,6.60
2023-01-13T16:32:55.541Z,6.45
2023-01-13T16:35:25.718Z,6.45
2023-01-13T16:37:55.110Z,6.44
2023-01-13T16:40:25.103Z,6.38
2023-01-13T16:42:54.118Z,6.38
2023-01-13T16:45:22.244Z,6.33
2023-01-13T16:47:50.559Z,6.35
2023-01-13T16:50:24.492Z,6.30
2023-01-13T16:52:54.734Z,6.27
2023-01-13T16:55:23.259Z,6.28
2023-01-13T16:57:51.527Z,6.26
2023-01-13T17:00:20.219Z,6.23
2023-01-13T17:02:48.458Z,6.22
2023-01-13T17:05:16.910Z,6.14
2023-01-13T17:07:46.303Z,6.13
2023-01-13T17:10:17.256Z,6.11
2023-01-13T17:12:45.908Z,6.12
2023-01-13T17:15:14.831Z,6.13
2023-01-13T17:17:44.439Z,6.12
2023-01-13T17:20:13.573Z,6.09
2023-01-13T17:22:42.469Z,6.14
2023-01-13T17:25:12.707Z,6.08
2023-01-13T17:27:42.843Z,6.09
2023-01-13T17:30:12.272Z,6.09
2023-01-13T17:32:40.718Z,6.05
2023-01-13T17:35:09.944Z,6.04
2023-01-13T17:37:38.266Z,5.99
2023-01-13T17:40:06.934Z,6.00
2023-01-13T17:42:35.696Z,6.02
2023-01-13T17:45:06.312Z,6.03
2023-01-13T17:47:35.122Z,6.02
2023-01-13T17:50:04.195Z,6.03
2023-01-13T17:52:32.866Z,5.96
2023-01-13T17:55:01.055Z,5.97
2023-01-13T17:57:29.279Z,6.02
2023-01-13T17:59:58.568Z,6.02
2023-01-13T18:02:30.209Z,6.03
2023-01-13T18:04:58.445Z,6.04
2023-01-13T18:07:26.628Z,6.03
2023-01-13T18:09:55.017Z,6.07
2023-01-13T18:12:23.149Z,6.04
2023-01-13T18:14:51.439Z,6.08
2023-01-13T18:17:19.713Z,6.11
2023-01-13T18:20:06.921Z,6.07
2023-01-13T18:22:52.902Z,6.09
2023-01-13T18:25:50.056Z,6.13
2023-01-13T18:28:18.212Z,6.16
2023-01-13T18:30:46.759Z,6.19
2023-01-13T18:33:15.205Z,6.18
2023-01-13T18:35:44.989Z,6.23
2023-01-13T18:38:14.424Z,6.20
2023-01-13T18:40:44.478Z,6.23
2023-01-13T18:43:11.681Z,6.23
2023-01-13T18:45:39.822Z,6.26
2023-01-13T18:48:08.097Z,6.27
2023-01-13T18:50:36.393Z,6.30
2023-01-13T18:53:05.949Z,6.33
2023-01-13T18:55:34.119Z,6.31
2023-01-13T18:58:02.391Z,6.36
2023-01-13T19:00:36.434Z,6.32
2023-01-13T19:05:34.435Z,6.31
2023-01-13T19:08:02.648Z,6.28
2023-01-13T19:10:32.948Z,6.29
2023-01-13T19:13:01.989Z,6.28
2023-01-13T19:15:30.299Z,6.31
2023-01-13T19:17:58.913Z,6.28
2023-01-13T19:20:27.008Z,6.28
2023-01-13T19:22:55.123Z,6.28
2023-01-13T19:25:23.323Z,6.33
2023-01-13T19:27:53.159Z,6.32
2023-01-13T19:30:21.463Z,6.35
2023-01-13T19:32:50.089Z,6.39
2023-01-13T19:35:18.433Z,6.42
2023-01-13T19:37:46.856Z,6.46
2023-01-13T19:40:15.499Z,6.50
2023-01-13T19:43:01.965Z,6.50
2023-01-13T19:45:33.968Z,6.51
2023-01-13T19:48:05.282Z,6.51
2023-01-13T19:50:36.697Z,6.54
2023-01-13T19:53:05.132Z,6.50
2023-01-13T19:55:33.803Z,6.51
2023-01-13T19:58:02.953Z,6.52
2023-01-13T20:00:32.705Z,6.53
2023-01-13T20:03:03.853Z,6.50
2023-01-13T20:05:32.135Z,6.50
2023-01-13T20:08:00.341Z,6.51
2023-01-13T20:10:30.585Z,6.48
2023-01-13T20:12:59.438Z,6.49
2023-01-13T20:15:27.713Z,6.50
2023-01-13T20:17:58.165Z,6.53
2023-01-13T20:20:27.731Z,6.56
2023-01-13T20:22:58.182Z,6.61
2023-01-13T20:25:28.769Z,6.63
2023-01-13T20:27:57.688Z,6.69
2023-01-13T20:30:26.072Z,6.69
2023-01-13T20:32:55.404Z,6.71
2023-01-13T20:35:30.105Z,6.72
2023-01-13T20:37:59.458Z,6.77
2023-01-13T20:40:28.553Z,6.77
2023-01-13T20:42:56.911Z,6.77
2023-01-13T20:45:26.219Z,6.80
2023-01-13T20:47:55.540Z,6.81
2023-01-13T20:50:25.820Z,6.87
2023-01-13T20:52:54.373Z,6.89
2023-01-13T20:55:22.701Z,6.88
2023-01-13T20:57:50.936Z,6.93
2023-01-13T21:00:20.028Z,6.96
2023-01-13T21:02:48.744Z,6.97
2023-01-13T21:05:18.049Z,7.03
2023-01-13T21:07:47.921Z,7.05
2023-01-13T21:10:17.847Z,7.04
2023-01-13T21:13:03.665Z,7.06
2023-01-13T21:15:32.168Z,7.09
2023-01-13T21:18:17.935Z,7.11
2023-01-13T21:20:46.967Z,7.13
2023-01-13T21:23:17.386Z,7.16
2023-01-13T21:25:45.907Z,7.20
2023-01-13T21:28:16.593Z,7.24
2023-01-13T21:30:45.703Z,7.28
2023-01-13T21:33:14.877Z,7.32
2023-01-13T21:35:43.842Z,7.37
2023-01-13T21:38:13.715Z,7.38
2023-01-13T21:40:43.753Z,7.42
2023-01-13T21:43:31.074Z,7.44
2023-01-13T21:46:17.188Z,7.46
2023-01-13T21:48:46.632Z,7.50
2023-01-13T21:51:15.594Z,7.54
2023-01-13T21:53:43.804Z,7.55
2023-01-13T21:56:14.077Z,7.55
2023-01-13T21:58:42.619Z,7.61
2023-01-13T22:01:11.920Z,7.62
2023-01-13T22:03:54.617Z,7.63
2023-01-13T22:06:23.958Z,7.68
2023-01-13T22:08:54.589Z,7.70
2023-01-13T22:11:24.808Z,7.71
2023-01-13T22:14:09.722Z,7.73
2023-01-13T22:16:40.250Z,7.76
2023-01-13T22:19:09.715Z,7.78
2023-01-13T22:21:38.371Z,7.76
2023-01-13T22:24:06.834Z,7.77
2023-01-13T22:26:36.993Z,7.80
2023-01-13T22:29:06.278Z,7.83
2023-01-13T22:31:35.548Z,7.85
2023-01-13T22:34:04.066Z,7.86
2023-01-13T22:36:32.266Z,7.89
2023-01-13T22:39:01.456Z,7.94
2023-01-13T22:41:29.760Z,7.95
2023-01-13T22:44:02.814Z,8.00
2023-01-13T22:46:31.305Z,7.98
2023-01-13T22:49:00.136Z,8.02
2023-01-13T22:51:30.675Z,8.03
2023-01-13T22:53:59.056Z,8.05
2023-01-13T22:56:27.774Z,8.06
2023-01-13T22:58:57.264Z,8.07
2023-01-13T23:01:27.824Z,8.10
2023-01-13T23:03:57.797Z,8.11
2023-01-13T23:06:27.061Z,8.09
2023-01-13T23:08:55.644Z,8.08
2023-01-13T23:11:25.523Z,8.13
2023-01-13T23:13:57.798Z,8.13
2023-01-13T23:16:29.457Z,8.13
2023-01-13T23:18:58.891Z,8.16
2023-01-13T23:21:29.175Z,8.11
2023-01-13T23:23:58.868Z,8.16
2023-01-13T23:26:27.618Z,8.13
2023-01-13T23:28:59.494Z,8.12
2023-01-13T23:31:30.734Z,8.15
2023-01-13T23:33:59.546Z,8.13
2023-01-13T23:36:29.596Z,8.16
2023-01-13T23:39:00.106Z,8.18
2023-01-13T23:41:29.536Z,8.20
2023-01-13T23:43:59.729Z,8.23
2023-01-13T23:46:31.087Z,8.20
2023-01-13T23:49:00.403Z,8.20
2023-01-13T23:51:30.468Z,8.20
2023-01-13T23:53:59.840Z,8.20
2023-01-13T23:56:29.375Z,8.18
2023-01-13T23:58:58.346Z,8.19
